Time;durP1;ratioP1;P1;durP2;ratioP2;P2;SDS_P1;SDS_P2;PMS_P1;PMS_P2;Temp;Humidity;BMP_temperature;BMP_pressure;BME280_temperature;BME280_humidity;BME280_pressure;Samples;Min_cycle;Max_cycle;Signal;HPM_P1;HPM_P2
2021/03/09 00:00:09;;;;;;;1.23;0.85;;;0.20;99.90;;;;;;5002146;28;20413;-62
2021/03/09 00:02:36;;;;;;;3.83;1.30;;;0.20;99.90;;;;;;5001791;28;20139;-63
2021/03/09 00:05:04;;;;;;;5.72;1.25;;;0.20;99.90;;;;;;5002214;28;20045;-62
2021/03/09 00:07:30;;;;;;;5.97;1.48;;;0.20;99.90;;;;;;5003106;28;20433;-63
2021/03/09 00:09:57;;;;;;;6.20;1.83;;;0.20;99.90;;;;;;4999781;28;20056;-62
2021/03/09 00:12:23;;;;;;;3.53;1.75;;;0.20;99.90;;;;;;5002562;28;20581;-63
2021/03/09 00:14:50;;;;;;;12.82;2.60;;;0.20;99.90;;;;;;5001824;28;20053;-63
2021/03/09 00:17:30;;;;;;;5.50;1.27;;;0.20;99.90;;;;;;5002154;28;20125;-64
2021/03/09 00:19:57;;;;;;;4.35;1.45;;;0.20;99.90;;;;;;4996761;28;20061;-63
2021/03/09 00:22:24;;;;;;;3.20;1.55;;;0.20;99.90;;;;;;5003535;28;20135;-62
2021/03/09 00:24:50;;;;;;;3.47;1.15;;;0.20;99.90;;;;;;4999833;28;20085;-63
2021/03/09 00:27:17;;;;;;;1.10;0.90;;;0.20;99.90;;;;;;5002160;28;20050;-62
2021/03/09 00:29:43;;;;;;;3.97;1.55;;;0.10;99.90;;;;;;5000850;28;20053;-62
2021/03/09 00:32:10;;;;;;;4.07;1.20;;;0.10;99.90;;;;;;5000311;28;20528;-65
2021/03/09 00:34:37;;;;;;;7.57;1.85;;;0.20;99.90;;;;;;5000566;28;20061;-63
2021/03/09 00:37:04;;;;;;;3.70;1.38;;;0.20;99.90;;;;;;5001333;28;20553;-63
2021/03/09 00:39:32;;;;;;;3.72;1.23;;;0.20;99.90;;;;;;5000529;28;20053;-63
2021/03/09 00:41:58;;;;;;;4.90;1.33;;;0.20;99.90;;;;;;4996977;28;20575;-63
2021/03/09 00:44:25;;;;;;;2.85;1.33;;;0.20;99.90;;;;;;4998848;28;20046;-63
2021/03/09 00:46:52;;;;;;;3.05;1.10;;;0.20;99.90;;;;;;4999993;28;20058;-62
2021/03/09 00:49:19;;;;;;;5.60;1.33;;;0.10;99.90;;;;;;5003483;28;20144;-63
2021/03/09 00:51:45;;;;;;;1.30;0.75;;;0.20;99.90;;;;;;4998740;28;20136;-62
2021/03/09 00:54:12;;;;;;;5.90;1.10;;;0.10;99.90;;;;;;5001792;28;20151;-64
2021/03/09 00:56:38;;;;;;;5.18;1.10;;;0.10;99.90;;;;;;4999489;28;20053;-64
2021/03/09 00:59:05;;;;;;;2.95;0.95;;;0.10;99.90;;;;;;5001778;28;20151;-62
2021/03/09 01:01:31;;;;;;;2.08;0.82;;;0.10;99.90;;;;;;4998373;28;20057;-63
2021/03/09 01:03:58;;;;;;;1.48;0.88;;;0.10;99.90;;;;;;5000061;28;20136;-62
2021/03/09 01:06:24;;;;;;;2.15;0.85;;;0.20;99.90;;;;;;5000331;28;20535;-64
2021/03/09 01:08:51;;;;;;;5.40;1.27;;;0.10;99.90;;;;;;5000492;28;20075;-63
2021/03/09 01:11:17;;;;;;;4.47;0.95;;;0.10;99.90;;;;;;4998712;28;20065;-62
2021/03/09 01:13:44;;;;;;;4.72;0.90;;;0.10;99.90;;;;;;4996112;28;20132;-63
2021/03/09 01:16:10;;;;;;;1.92;0.90;;;0.10;99.90;;;;;;5000382;28;20053;-64
2021/03/09 01:18:37;;;;;;;1.73;0.60;;;0.10;99.90;;;;;;5002735;28;20505;-63
2021/03/09 01:21:04;;;;;;;7.78;1.00;;;0.10;99.90;;;;;;4999268;28;20069;-63
2021/03/09 01:23:30;;;;;;;5.32;1.10;;;0.10;99.90;;;;;;4997526;28;20061;-64
2021/03/09 01:25:57;;;;;;;5.90;1.10;;;0.10;99.90;;;;;;4998134;28;20053;-63
2021/03/09 01:28:24;;;;;;;4.00;1.00;;;0.10;99.90;;;;;;4999701;28;20057;-62
2021/03/09 01:30:50;;;;;;;2.13;1.20;;;0.10;99.90;;;;;;5000419;28;20596;-64
2021/03/09 01:33:17;;;;;;;2.03;1.17;;;0.10;99.90;;;;;;4993125;28;20616;-63
2021/03/09 01:35:43;;;;;;;2.20;1.48;;;0.10;99.90;;;;;;5000081;28;20580;-62
2021/03/09 01:38:10;;;;;;;2.28;0.90;;;0.10;99.90;;;;;;5000268;28;20049;-63
2021/03/09 01:40:36;;;;;;;1.88;1.13;;;0.10;99.90;;;;;;4998747;28;20962;-62
2021/03/09 01:43:04;;;;;;;1.25;0.88;;;0.10;99.90;;;;;;5001044;28;20805;-62
2021/03/09 01:45:31;;;;;;;3.05;1.15;;;0.10;99.90;;;;;;4995489;28;20062;-64
2021/03/09 01:48:01;;;;;;;1.55;1.23;;;0.10;99.90;;;;;;4999694;28;20133;-63
2021/03/09 01:50:32;;;;;;;2.78;0.98;;;0.10;99.90;;;;;;4999436;28;20099;-64
2021/03/09 01:53:03;;;;;;;3.45;0.85;;;0.10;99.90;;;;;;4995628;28;20131;-63
2021/03/09 01:55:30;;;;;;;2.47;1.10;;;0.10;99.90;;;;;;5001086;28;20048;-64
2021/03/09 01:57:58;;;;;;;3.67;1.20;;;0.10;99.90;;;;;;4999142;28;20045;-64
2021/03/09 02:00:24;;;;;;;1.02;0.77;;;0.10;99.90;;;;;;4993381;28;20656;-63
2021/03/09 02:02:52;;;;;;;3.85;0.95;;;0.10;99.90;;;;;;5000485;28;20066;-62
2021/03/09 02:05:18;;;;;;;2.80;1.05;;;0.10;99.90;;;;;;4996306;28;20050;-63
2021/03/09 02:07:45;;;;;;;3.03;0.82;;;0.10;99.90;;;;;;4998352;28;20050;-63
2021/03/09 02:10:14;;;;;;;4.15;1.35;;;0.10;99.90;;;;;;5000106;28;20085;-65
2021/03/09 02:13:08;;;;;;;4.10;1.42;;;0.20;99.90;;;;;;5001570;28;20651;-64
2021/03/09 02:15:59;;;;;;;1.83;0.98;;;0.20;99.90;;;;;;4999748;28;20046;-62
2021/03/09 02:18:40;;;;;;;3.13;1.30;;;0.10;99.90;;;;;;4998956;28;20145;-64
2021/03/09 02:21:20;;;;;;;2.63;1.45;;;0.10;99.90;;;;;;4999100;28;20080;-63
2021/03/09 02:24:08;;;;;;;2.90;0.60;;;0.10;99.90;;;;;;4999234;28;21323;-63
2021/03/09 02:26:54;;;;;;;1.75;0.68;;;0.10;99.90;;;;;;4999839;28;20830;-62
2021/03/09 02:29:39;;;;;;;4.00;0.88;;;0.10;99.90;;;;;;4994899;28;20124;-62
2021/03/09 02:32:12;;;;;;;1.58;1.13;;;0.10;99.90;;;;;;4995572;28;20074;-62
2021/03/09 02:34:47;;;;;;;1.98;1.15;;;0.10;99.90;;;;;;4993874;28;20073;-65
2021/03/09 02:37:16;;;;;;;5.20;1.05;;;0.10;99.90;;;;;;5001936;28;20054;-63
2021/03/09 02:39:46;;;;;;;4.55;0.75;;;0.10;99.90;;;;;;4998282;28;20045;-65
2021/03/09 02:42:23;;;;;;;1.90;1.10;;;0.20;99.90;;;;;;4999501;28;20544;-64
2021/03/09 02:44:57;;;;;;;3.60;1.20;;;0.20;99.90;;;;;;4999071;28;20049;-65
2021/03/09 02:47:25;;;;;;;1.83;1.02;;;0.20;99.90;;;;;;5002426;28;20046;-63
2021/03/09 02:49:54;;;;;;;3.55;1.48;;;0.20;99.90;;;;;;5001956;28;20056;-65
2021/03/09 02:52:22;;;;;;;3.50;1.25;;;0.20;99.90;;;;;;5000773;28;20115;-63
2021/03/09 02:54:51;;;;;;;2.13;1.55;;;0.20;99.90;;;;;;5002040;28;20062;-63
2021/03/09 02:57:19;;;;;;;2.90;1.10;;;0.20;99.90;;;;;;5003000;28;20142;-63
2021/03/09 02:59:47;;;;;;;4.90;1.77;;;0.20;99.90;;;;;;5001994;28;20053;-63
2021/03/09 03:02:16;;;;;;;4.63;1.40;;;0.10;99.90;;;;;;5001954;28;20054;-64
2021/03/09 03:04:49;;;;;;;0.90;0.55;;;0.20;99.90;;;;;;5003658;28;20061;-62
2021/03/09 03:07:18;;;;;;;2.47;1.40;;;0.20;99.90;;;;;;5002282;28;20510;-63
2021/03/09 03:09:47;;;;;;;4.72;2.00;;;0.20;99.90;;;;;;5001908;28;20524;-65
2021/03/09 03:12:14;;;;;;;1.83;1.08;;;0.20;99.90;;;;;;5002138;28;20504;-64
2021/03/09 03:14:42;;;;;;;1.98;0.77;;;0.20;99.90;;;;;;5001658;28;20050;-64
2021/03/09 03:17:10;;;;;;;2.20;1.10;;;0.20;99.90;;;;;;5003551;28;20054;-64
2021/03/09 03:19:49;;;;;;;3.88;1.10;;;0.20;99.90;;;;;;5001751;28;20074;-62
2021/03/09 03:22:17;;;;;;;6.85;1.15;;;0.20;99.90;;;;;;5003331;28;20053;-65
2021/03/09 03:24:46;;;;;;;4.85;1.30;;;0.30;99.90;;;;;;5004209;28;20045;-62
2021/03/09 03:27:16;;;;;;;6.95;0.90;;;0.30;99.90;;;;;;5003967;28;20100;-62
2021/03/09 03:29:43;;;;;;;;;;;0.30;99.90;;;;;;4999948;28;20068;-62
2021/03/09 03:32:10;;;;;;;3.88;0.95;;;0.30;99.90;;;;;;5003214;28;19925;-63
2021/03/09 03:34:37;;;;;;;4.20;1.15;;;0.30;99.90;;;;;;5001909;28;20994;-63
2021/03/09 03:37:04;;;;;;;3.80;0.85;;;0.30;99.90;;;;;;5002312;28;20054;-63
2021/03/09 03:39:31;;;;;;;5.35;0.95;;;0.30;99.90;;;;;;5000146;28;20050;-63
2021/03/09 03:41:58;;;;;;;2.05;1.27;;;0.30;99.90;;;;;;5000895;28;20162;-63
2021/03/09 03:44:24;;;;;;;3.38;1.10;;;0.30;99.90;;;;;;5002121;28;21016;-62
2021/03/09 03:46:51;;;;;;;1.50;0.95;;;0.30;99.90;;;;;;5002913;28;20112;-62
2021/03/09 03:49:17;;;;;;;2.53;0.50;;;0.30;99.90;;;;;;5000655;28;20066;-63
2021/03/09 03:51:49;;;;;;;2.47;1.00;;;0.30;99.90;;;;;;5000177;28;20050;-63
2021/03/09 03:54:24;;;;;;;4.22;1.20;;;0.30;99.90;;;;;;5002208;28;20062;-63
2021/03/09 03:57:01;;;;;;;1.40;0.93;;;0.30;99.90;;;;;;5001263;28;20054;-63
2021/03/09 03:59:35;;;;;;;6.25;1.10;;;0.30;99.90;;;;;;5007317;28;20049;-65
2021/03/09 04:02:08;;;;;;;1.23;0.60;;;0.30;99.90;;;;;;5001338;28;20045;-65
2021/03/09 04:04:38;;;;;;;3.55;1.02;;;0.30;99.90;;;;;;5000692;28;20057;-66
2021/03/09 04:07:06;;;;;;;0.70;0.57;;;0.30;99.90;;;;;;4999471;28;20096;-65
2021/03/09 04:09:33;;;;;;;3.05;1.50;;;0.30;99.90;;;;;;5000728;28;20182;-67
2021/03/09 04:12:05;;;;;;;7.03;1.23;;;0.30;99.90;;;;;;5001043;28;20045;-64
2021/03/09 04:14:32;;;;;;;2.33;0.60;;;0.30;99.90;;;;;;5000999;28;20108;-65
2021/03/09 04:17:01;;;;;;;2.55;0.73;;;0.40;99.90;;;;;;5000705;28;20407;-65
2021/03/09 04:19:29;;;;;;;0.85;0.55;;;0.40;99.90;;;;;;5003186;28;20045;-64
2021/03/09 04:21:57;;;;;;;3.80;0.73;;;0.40;99.90;;;;;;4999908;28;20157;-65
2021/03/09 04:24:25;;;;;;;3.70;0.75;;;0.40;99.90;;;;;;4999495;28;20172;-65
2021/03/09 04:26:52;;;;;;;5.93;0.75;;;0.40;99.90;;;;;;5007545;28;20421;-65
2021/03/09 04:29:19;;;;;;;4.35;0.77;;;0.40;99.90;;;;;;5001410;28;20123;-66
2021/03/09 04:31:46;;;;;;;1.15;0.70;;;0.40;99.90;;;;;;4998863;28;20058;-65
2021/03/09 04:34:16;;;;;;;2.40;0.80;;;0.40;99.90;;;;;;5000338;28;20050;-67
2021/03/09 04:36:43;;;;;;;3.42;1.00;;;0.40;99.90;;;;;;5000992;28;20108;-65
2021/03/09 04:39:11;;;;;;;3.78;0.93;;;0.50;99.90;;;;;;5000535;28;20128;-66
2021/03/09 04:41:37;;;;;;;1.40;0.65;;;0.40;99.90;;;;;;4999727;28;20049;-65
2021/03/09 04:44:04;;;;;;;1.67;0.60;;;0.50;99.90;;;;;;5001606;28;20057;-66
2021/03/09 04:46:31;;;;;;;4.10;0.73;;;0.50;99.90;;;;;;4999865;28;20062;-65
2021/03/09 04:48:58;;;;;;;1.33;0.50;;;0.50;99.90;;;;;;4999302;28;20062;-64
2021/03/09 04:51:26;;;;;;;1.20;1.05;;;0.50;99.90;;;;;;5001285;28;20045;-66
2021/03/09 04:53:53;;;;;;;4.70;1.20;;;0.50;99.90;;;;;;4992303;28;20405;-65
2021/03/09 04:56:20;;;;;;;0.95;0.70;;;0.50;99.90;;;;;;4999203;28;20050;-65
2021/03/09 04:58:46;;;;;;;3.75;0.73;;;0.50;99.90;;;;;;5002193;28;20129;-65
2021/03/09 05:01:12;;;;;;;4.97;0.93;;;0.50;99.90;;;;;;4995538;28;20061;-65
2021/03/09 05:03:39;;;;;;;4.53;0.65;;;0.50;99.90;;;;;;4997262;28;20053;-65
2021/03/09 05:06:05;;;;;;;6.43;0.90;;;0.50;99.90;;;;;;4997090;28;20096;-66
2021/03/09 05:08:32;;;;;;;3.67;0.50;;;0.50;99.90;;;;;;4997455;28;20065;-65
2021/03/09 05:10:58;;;;;;;0.93;0.70;;;0.50;99.90;;;;;;4998900;28;21397;-65
2021/03/09 05:13:29;;;;;;;2.03;0.50;;;0.50;99.90;;;;;;5001745;28;20056;-64
2021/03/09 05:15:57;;;;;;;4.22;0.60;;;0.50;99.90;;;;;;4998310;28;20057;-66
2021/03/09 05:18:24;;;;;;;6.55;1.35;;;0.50;99.90;;;;;;4999778;28;20063;-65
2021/03/09 05:20:50;;;;;;;2.60;0.50;;;0.50;99.90;;;;;;4999298;28;20057;-65
2021/03/09 05:23:17;;;;;;;3.80;0.93;;;0.40;99.90;;;;;;4999126;28;20093;-62
2021/03/09 05:25:43;;;;;;;4.10;0.63;;;0.40;99.90;;;;;;5000131;28;20100;-64
2021/03/09 05:28:09;;;;;;;6.10;0.88;;;0.50;99.90;;;;;;4999137;28;20057;-64
2021/03/09 05:30:36;;;;;;;7.47;3.17;;;0.50;99.90;;;;;;5000663;28;20541;-62
2021/03/09 05:33:03;;;;;;;24.02;6.53;;;0.50;99.90;;;;;;4999022;28;20081;-63
2021/03/09 05:35:29;;;;;;;7.75;1.20;;;0.50;99.90;;;;;;4997442;28;20054;-65
2021/03/09 05:37:58;;;;;;;6.05;0.90;;;0.50;99.90;;;;;;4994152;28;20473;-65
2021/03/09 05:40:25;;;;;;;4.05;1.55;;;0.50;99.90;;;;;;5000355;28;20054;-65
2021/03/09 05:42:53;;;;;;;3.85;0.85;;;0.50;99.90;;;;;;4999378;28;20645;-65
2021/03/09 05:45:21;;;;;;;5.45;1.05;;;0.50;99.90;;;;;;4999808;28;20050;-65
2021/03/09 05:47:48;;;;;;;1.67;0.98;;;0.50;99.90;;;;;;4996482;28;20046;-65
2021/03/09 05:50:15;;;;;;;1.30;0.50;;;0.50;99.90;;;;;;4998368;28;20050;-65
2021/03/09 05:52:42;;;;;;;2.90;1.10;;;0.50;99.90;;;;;;4999153;28;20095;-65
2021/03/09 05:55:11;;;;;;;4.05;0.55;;;0.50;99.90;;;;;;4996738;28;20046;-65
2021/03/09 05:57:38;;;;;;;2.17;0.60;;;0.50;99.90;;;;;;4998662;28;20097;-67
2021/03/09 06:00:06;;;;;;;4.22;1.02;;;0.50;99.90;;;;;;4999202;28;20104;-66
2021/03/09 06:02:39;;;;;;;1.95;1.00;;;0.50;99.90;;;;;;4997580;28;20059;-66
2021/03/09 06:05:08;;;;;;;4.63;0.95;;;0.60;99.90;;;;;;4999751;28;20734;-66
2021/03/09 06:07:36;;;;;;;4.53;0.90;;;0.60;99.90;;;;;;4997649;28;20069;-64
2021/03/09 06:10:18;;;;;;;12.18;1.67;;;0.70;99.90;;;;;;4997862;28;20050;-64
2021/03/09 06:12:44;;;;;;;4.45;1.02;;;0.70;99.90;;;;;;5000018;28;20119;-66
2021/03/09 06:15:11;;;;;;;2.97;0.82;;;0.70;99.90;;;;;;5002515;28;20776;-65
2021/03/09 06:17:39;;;;;;;3.97;1.05;;;0.70;99.90;;;;;;5001063;28;20546;-65
2021/03/09 06:20:22;;;;;;;2.42;0.38;;;0.70;99.90;;;;;;5003727;28;20141;-64
2021/03/09 06:23:00;;;;;;;1.38;1.13;;;0.80;99.90;;;;;;5002487;28;20462;-66
2021/03/09 06:25:34;;;;;;;10.80;1.80;;;0.80;99.90;;;;;;5002864;28;20064;-65
2021/03/09 06:28:03;;;;;;;6.03;2.17;;;0.80;99.90;;;;;;5001653;28;20386;-65
2021/03/09 06:30:32;;;;;;;7.47;1.38;;;0.90;99.90;;;;;;5002821;28;20567;-66
2021/03/09 06:32:59;;;;;;;3.80;0.55;;;1.00;99.90;;;;;;5002490;28;20113;-66
2021/03/09 06:35:36;;;;;;;6.18;0.98;;;1.00;99.90;;;;;;5001579;28;20057;-66
2021/03/09 06:38:25;;;;;;;11.68;0.95;;;1.10;99.90;;;;;;5000293;28;20145;-65
2021/03/09 06:41:16;;;;;;;5.57;0.82;;;1.10;99.90;;;;;;5002412;28;20049;-67
2021/03/09 06:43:46;;;;;;;2.70;0.55;;;1.20;99.90;;;;;;4997978;28;20120;-65
2021/03/09 06:46:21;;;;;;;6.78;1.20;;;1.30;99.90;;;;;;5000828;28;20038;-67
2021/03/09 06:48:54;;;;;;;2.15;0.40;;;1.30;99.90;;;;;;5000071;28;20057;-65
2021/03/09 06:51:25;;;;;;;6.97;0.70;;;1.40;99.90;;;;;;5001609;28;20806;-65
2021/03/09 06:54:02;;;;;;;;;;;1.40;99.90;;;;;;5002045;28;20137;-67
2021/03/09 06:56:28;;;;;;;7.00;2.65;;;1.50;99.90;;;;;;5000697;28;20051;-65
2021/03/09 06:58:55;;;;;;;3.08;0.80;;;1.50;99.90;;;;;;4998049;28;20116;-65
2021/03/09 07:01:23;;;;;;;4.95;0.85;;;1.60;99.90;;;;;;5001142;28;20052;-64
2021/03/09 07:03:50;;;;;;;2.15;0.60;;;1.60;99.90;;;;;;4999646;28;20639;-65
2021/03/09 07:06:17;;;;;;;10.68;1.30;;;1.70;99.90;;;;;;5003311;28;20062;-64
2021/03/09 07:08:43;;;;;;;2.35;1.40;;;1.70;99.90;;;;;;4999629;28;20050;-65
2021/03/09 07:11:11;;;;;;;3.13;0.77;;;1.80;99.90;;;;;;5002114;28;20061;-67
2021/03/09 07:13:39;;;;;;;4.35;0.98;;;1.80;99.90;;;;;;4999804;28;20056;-64
2021/03/09 07:16:06;;;;;;;8.38;1.15;;;1.80;99.90;;;;;;5000990;28;20108;-67
2021/03/09 07:18:35;;;;;;;5.85;0.73;;;1.80;99.90;;;;;;5001637;28;20131;-64
2021/03/09 07:21:02;;;;;;;4.82;0.65;;;1.80;99.90;;;;;;5001267;28;20068;-65
2021/03/09 07:23:31;;;;;;;3.75;1.17;;;1.80;99.90;;;;;;4999683;28;20046;-65
2021/03/09 07:26:04;;;;;;;2.90;0.60;;;1.80;99.90;;;;;;5000270;28;20433;-65
2021/03/09 07:28:36;;;;;;;4.60;1.10;;;1.70;99.90;;;;;;5000548;28;20450;-67
2021/03/09 07:31:05;;;;;;;1.85;0.60;;;1.70;99.90;;;;;;5002377;28;20046;-67
2021/03/09 07:33:34;;;;;;;2.95;0.70;;;1.70;99.90;;;;;;5000389;28;20085;-66
2021/03/09 07:36:03;;;;;;;1.83;0.60;;;1.70;99.90;;;;;;4998586;28;20045;-66
2021/03/09 07:38:32;;;;;;;3.63;0.68;;;1.70;99.90;;;;;;5000996;28;20046;-66
2021/03/09 07:40:58;;;;;;;5.18;0.75;;;1.70;99.90;;;;;;4998968;28;20537;-64
2021/03/09 07:43:26;;;;;;;5.88;1.00;;;1.70;99.90;;;;;;4997201;28;20073;-64
2021/03/09 07:45:53;;;;;;;2.78;0.90;;;1.70;99.90;;;;;;5000365;28;20062;-65
2021/03/09 07:48:21;;;;;;;9.02;1.52;;;1.70;99.90;;;;;;4998243;28;20042;-65
2021/03/09 07:50:49;;;;;;;12.77;1.90;;;1.70;99.90;;;;;;5001795;28;20398;-64
2021/03/09 07:53:18;;;;;;;3.72;0.82;;;1.80;99.90;;;;;;5003236;28;20042;-64
2021/03/09 07:55:49;;;;;;;2.65;0.68;;;1.80;99.90;;;;;;4999646;28;20117;-65
2021/03/09 07:58:16;;;;;;;2.28;0.40;;;1.80;99.90;;;;;;5000164;28;20100;-65
2021/03/09 08:01:05;;;;;;;7.40;0.90;;;1.90;99.90;;;;;;5001197;28;20068;-65
2021/03/09 08:03:38;;;;;;;5.17;0.77;;;1.90;99.90;;;;;;4998414;28;20056;-65
2021/03/09 08:06:15;;;;;;;3.33;0.85;;;1.90;99.90;;;;;;4998485;28;20089;-67
2021/03/09 08:08:56;;;;;;;4.35;0.85;;;1.90;99.90;;;;;;5000723;28;20137;-65
2021/03/09 08:11:25;;;;;;;4.25;1.17;;;1.90;99.90;;;;;;5000124;28;20046;-66
2021/03/09 08:14:13;;;;;;;5.07;0.95;;;1.90;99.90;;;;;;4997110;28;20425;-65
2021/03/09 08:16:42;;;;;;;3.22;0.57;;;1.90;99.90;;;;;;4998698;28;20050;-66
2021/03/09 08:19:12;;;;;;;3.03;1.20;;;1.90;99.90;;;;;;5000234;28;21739;-65
2021/03/09 08:21:57;;;;;;;4.43;1.48;;;1.80;99.90;;;;;;5000252;28;20401;-65
2021/03/09 08:24:42;;;;;;;5.90;1.05;;;1.80;99.90;;;;;;4999028;28;20042;-67
2021/03/09 08:27:29;;;;;;;9.38;1.80;;;1.70;99.90;;;;;;4999327;28;20062;-65
2021/03/09 08:30:14;;;;;;;3.72;0.90;;;1.70;99.90;;;;;;4997212;28;20532;-66
2021/03/09 08:32:40;;;;;;;8.43;0.80;;;1.70;99.90;;;;;;4999038;28;20156;-65
2021/03/09 08:35:13;;;;;;;2.70;0.95;;;1.70;99.90;;;;;;4998666;28;20056;-67
2021/03/09 08:37:50;;;;;;;2.30;1.00;;;1.80;99.90;;;;;;4996585;28;20046;-66
2021/03/09 08:40:19;;;;;;;6.53;1.10;;;1.80;99.90;;;;;;4993343;28;20132;-65
2021/03/09 08:43:00;;;;;;;5.03;1.10;;;1.90;99.90;;;;;;4997674;28;20050;-67
2021/03/09 08:45:44;;;;;;;8.93;2.58;;;1.90;99.90;;;;;;4998739;28;20065;-65
2021/03/09 08:48:12;;;;;;;1.33;0.70;;;2.00;99.90;;;;;;5000220;28;20054;-65
2021/03/09 08:50:43;;;;;;;12.85;4.43;;;2.10;99.90;;;;;;4996847;28;20058;-64
2021/03/09 08:53:34;;;;;;;2.28;1.00;;;2.20;99.90;;;;;;5001178;28;20065;-67
2021/03/09 08:56:05;;;;;;;4.38;1.20;;;2.20;99.90;;;;;;4995658;28;20052;-65
2021/03/09 08:58:33;;;;;;;2.10;0.82;;;2.30;99.90;;;;;;5001556;28;20053;-64
2021/03/09 09:01:00;;;;;;;12.27;1.27;;;2.30;99.90;;;;;;4997976;28;20464;-65
2021/03/09 09:03:30;;;;;;;5.57;1.13;;;2.40;99.90;;;;;;5000138;28;20062;-66
2021/03/09 09:05:57;;;;;;;5.45;1.55;;;2.40;99.90;;;;;;4996789;28;20050;-66
2021/03/09 09:08:23;;;;;;;7.15;0.80;;;2.50;99.90;;;;;;5004194;28;20045;-65
2021/03/09 09:10:50;;;;;;;3.60;0.90;;;2.60;99.90;;;;;;4998285;28;20065;-66
2021/03/09 09:13:25;;;;;;;8.05;1.50;;;2.60;99.90;;;;;;4998373;28;20053;-66
2021/03/09 09:15:52;;;;;;;8.52;1.55;;;2.60;99.90;;;;;;4996231;28;20119;-65
2021/03/09 09:18:21;;;;;;;5.65;1.45;;;2.60;99.90;;;;;;5001134;28;20816;-65
2021/03/09 09:20:48;;;;;;;4.25;0.70;;;2.50;99.90;;;;;;5000173;28;20124;-67
2021/03/09 09:23:18;;;;;;;4.93;0.95;;;2.50;99.90;;;;;;4999510;28;20053;-65
2021/03/09 09:25:47;;;;;;;3.80;1.20;;;2.50;99.90;;;;;;4997739;28;20136;-67
2021/03/09 09:28:33;;;;;;;5.63;1.10;;;2.50;99.90;;;;;;4999502;28;20072;-64
2021/03/09 09:31:04;;;;;;;4.20;0.75;;;2.50;99.90;;;;;;5000256;28;20068;-67
2021/03/09 09:33:53;;;;;;;8.10;1.58;;;2.60;99.90;;;;;;4996699;28;20082;-66
2021/03/09 09:36:20;;;;;;;7.47;1.60;;;2.50;99.90;;;;;;4998354;28;20046;-66
2021/03/09 09:38:50;;;;;;;5.93;1.33;;;2.50;99.90;;;;;;4998119;28;20111;-65
2021/03/09 09:41:19;;;;;;;3.10;1.92;;;2.50;99.90;;;;;;4997235;28;20099;-64
2021/03/09 09:43:46;;;;;;;5.57;1.63;;;2.50;99.90;;;;;;4996058;28;20045;-66
2021/03/09 09:46:21;;;;;;;6.38;1.50;;;2.50;99.90;;;;;;4999350;28;20041;-64
2021/03/09 09:48:48;;;;;;;7.15;1.48;;;2.50;99.90;;;;;;5000220;28;20060;-67
2021/03/09 09:51:17;;;;;;;7.88;2.42;;;2.50;99.90;;;;;;4994395;28;20123;-66
2021/03/09 09:53:49;;;;;;;4.70;1.40;;;2.50;99.90;;;;;;4996060;28;20599;-66
2021/03/09 09:56:18;;;;;;;3.95;1.63;;;2.60;99.90;;;;;;4997983;28;20065;-67
2021/03/09 09:58:47;;;;;;;6.50;0.85;;;2.60;99.90;;;;;;5000470;28;20046;-64
2021/03/09 10:01:19;;;;;;;3.65;0.73;;;2.60;99.90;;;;;;4999422;28;20521;-66
2021/03/09 10:03:50;;;;;;;5.38;0.88;;;2.50;99.90;;;;;;4995955;28;20807;-66
2021/03/09 10:06:18;;;;;;;13.30;1.60;;;2.70;99.90;;;;;;5000016;28;20058;-67
2021/03/09 10:08:45;;;;;;;8.77;1.15;;;2.80;99.90;;;;;;5000633;28;20057;-66
2021/03/09 10:11:12;;;;;;;3.53;1.17;;;2.90;99.90;;;;;;4999493;28;20053;-65
2021/03/09 10:14:05;;;;;;;3.65;0.68;;;3.00;99.90;;;;;;5001750;28;20049;-64
2021/03/09 10:16:39;;;;;;;11.30;3.25;;;3.00;99.90;;;;;;4998899;28;20058;-65
2021/03/09 10:19:11;;;;;;;6.05;0.93;;;3.00;99.90;;;;;;5002660;28;20046;-67
2021/03/09 10:21:39;;;;;;;5.10;0.77;;;2.90;99.90;;;;;;4998632;28;20050;-66
2021/03/09 10:24:07;;;;;;;5.20;1.15;;;2.90;99.90;;;;;;4998850;28;20060;-66
2021/03/09 10:26:33;;;;;;;6.60;1.10;;;2.80;99.90;;;;;;4993486;28;20058;-65
2021/03/09 10:29:02;;;;;;;11.60;1.45;;;2.80;99.90;;;;;;4997083;28;20112;-66
2021/03/09 10:31:42;;;;;;;7.55;1.35;;;2.80;99.90;;;;;;4997102;28;20050;-65
2021/03/09 10:34:09;;;;;;;3.65;0.85;;;2.80;99.90;;;;;;4995915;28;20052;-65
2021/03/09 10:36:56;;;;;;;10.20;1.58;;;2.90;99.90;;;;;;4998264;28;20057;-66
2021/03/09 10:39:25;;;;;;;12.50;1.05;;;3.00;99.90;;;;;;5001849;28;20057;-65
2021/03/09 10:41:51;;;;;;;14.48;1.23;;;3.10;99.90;;;;;;4997570;28;20131;-65
2021/03/09 10:44:35;;;;;;;5.60;5.10;;;3.10;99.90;;;;;;4995670;28;20057;-65
2021/03/09 10:47:04;;;;;;;6.65;0.90;;;3.20;99.90;;;;;;4998252;28;20128;-65
2021/03/09 10:49:33;;;;;;;5.85;1.10;;;3.20;99.90;;;;;;4996030;28;20057;-64
2021/03/09 10:52:07;;;;;;;4.90;0.75;;;3.30;99.90;;;;;;4998237;28;20104;-66
2021/03/09 10:54:37;;;;;;;6.32;1.33;;;3.40;99.90;;;;;;4999857;28;20151;-67
2021/03/09 10:57:22;;;;;;;8.80;1.23;;;3.30;99.90;;;;;;4998880;28;20489;-67
2021/03/09 10:59:49;;;;;;;2.13;0.88;;;3.30;99.90;;;;;;4995822;28;20046;-65
2021/03/09 11:02:16;;;;;;;2.08;0.65;;;3.20;99.90;;;;;;5001411;28;20050;-66
2021/03/09 11:04:43;;;;;;;8.55;1.58;;;3.10;99.90;;;;;;5004602;28;20461;-67
2021/03/09 11:07:10;;;;;;;4.90;0.85;;;3.10;99.90;;;;;;5003362;28;20323;-66
2021/03/09 11:09:36;;;;;;;3.72;0.60;;;3.00;99.90;;;;;;5001051;28;20096;-66
2021/03/09 11:12:03;;;;;;;5.88;0.95;;;2.80;99.90;;;;;;5001296;28;20061;-65
2021/03/09 11:14:29;;;;;;;4.43;1.02;;;2.70;99.90;;;;;;5002135;28;20041;-66
2021/03/09 11:16:56;;;;;;;3.08;1.05;;;2.60;99.90;;;;;;5000876;28;20077;-66
2021/03/09 11:19:22;;;;;;;1.42;0.40;;;2.60;99.90;;;;;;5001340;28;20096;-66
2021/03/09 11:21:49;;;;;;;3.67;0.85;;;2.50;99.90;;;;;;5000841;28;20050;-65
2021/03/09 11:24:15;;;;;;;1.17;0.70;;;2.50;99.90;;;;;;4999563;28;20050;-66
2021/03/09 11:26:42;;;;;;;6.22;0.73;;;2.40;99.90;;;;;;5000855;28;20097;-65
2021/03/09 11:29:08;;;;;;;4.32;0.68;;;2.40;99.90;;;;;;5000232;28;20751;-65
2021/03/09 11:31:35;;;;;;;2.38;0.88;;;2.40;99.90;;;;;;5000200;28;20482;-65
2021/03/09 11:34:02;;;;;;;2.17;0.90;;;2.30;99.90;;;;;;5001684;28;20093;-65
2021/03/09 11:36:29;;;;;;;4.75;0.98;;;2.30;99.90;;;;;;4997998;28;20042;-65
2021/03/09 11:38:55;;;;;;;8.25;1.00;;;2.30;99.90;;;;;;5000723;28;20053;-66
2021/03/09 11:41:21;;;;;;;11.32;0.77;;;2.40;99.90;;;;;;4998840;28;20049;-65
2021/03/09 11:43:49;;;;;;;4.15;0.95;;;2.40;99.90;;;;;;4994872;28;20112;-67
2021/03/09 11:46:16;;;;;;;2.78;1.33;;;2.40;99.90;;;;;;5000830;28;20049;-65
2021/03/09 11:48:42;;;;;;;7.82;0.70;;;2.50;99.90;;;;;;4999327;28;20046;-62
2021/03/09 11:51:10;;;;;;;5.55;0.50;;;2.60;99.90;;;;;;4995772;28;20058;-62
2021/03/09 11:53:36;;;;;;;3.83;0.65;;;2.60;99.90;;;;;;4996155;28;20050;-63
2021/03/09 11:56:03;;;;;;;6.57;1.00;;;2.60;99.90;;;;;;4998532;28;20144;-64
2021/03/09 11:58:31;;;;;;;4.18;0.80;;;2.60;99.90;;;;;;4997282;28;20208;-62
2021/03/09 12:00:58;;;;;;;3.83;1.30;;;2.60;99.90;;;;;;4997846;28;20062;-62
2021/03/09 12:03:25;;;;;;;4.53;1.17;;;2.50;99.90;;;;;;4995081;28;20042;-62
2021/03/09 12:05:51;;;;;;;2.05;0.80;;;2.50;99.90;;;;;;4994126;28;20049;-64
2021/03/09 12:08:18;;;;;;;2.08;0.82;;;2.50;99.90;;;;;;4994881;28;20050;-63
2021/03/09 12:10:44;;;;;;;4.80;0.90;;;2.50;99.90;;;;;;4996789;28;20053;-62
2021/03/09 12:13:11;;;;;;;3.35;0.93;;;2.50;99.90;;;;;;5000717;28;20112;-63
2021/03/09 12:15:37;;;;;;;2.22;1.15;;;2.50;99.90;;;;;;4999827;28;20408;-62
2021/03/09 12:18:04;;;;;;;6.45;1.45;;;2.60;99.90;;;;;;5000368;28;20429;-63
2021/03/09 12:20:30;;;;;;;4.55;1.00;;;2.80;99.90;;;;;;4999504;28;20151;-63
2021/03/09 12:22:57;;;;;;;5.40;1.38;;;2.90;99.90;;;;;;4997092;28;20053;-63
2021/03/09 12:25:24;;;;;;;2.83;0.95;;;3.00;99.90;;;;;;4999956;28;20085;-62
2021/03/09 12:27:51;;;;;;;4.28;1.23;;;2.90;99.90;;;;;;4998086;28;20073;-63
2021/03/09 12:30:17;;;;;;;4.78;1.60;;;2.90;99.90;;;;;;4999695;28;20054;-62
2021/03/09 12:32:44;;;;;;;7.43;1.83;;;2.90;99.90;;;;;;5000677;28;20120;-62
2021/03/09 12:35:29;;;;;;;5.75;1.10;;;2.90;99.90;;;;;;5000430;28;20057;-63
2021/03/09 12:38:14;;;;;;;2.08;0.70;;;3.00;99.90;;;;;;4996235;28;20098;-63
2021/03/09 12:40:42;;;;;;;5.03;1.25;;;3.00;99.90;;;;;;4999453;28;20472;-63
2021/03/09 12:43:08;;;;;;;7.20;1.17;;;3.00;99.90;;;;;;4997033;28;20042;-62
2021/03/09 12:45:34;;;;;;;9.18;1.63;;;2.90;99.90;;;;;;4999652;28;20064;-62
2021/03/09 12:48:03;;;;;;;4.07;1.42;;;2.80;99.90;;;;;;5002441;28;20141;-66
2021/03/09 12:50:30;;;;;;;5.00;1.23;;;2.70;99.90;;;;;;4999518;28;20052;-65
2021/03/09 12:52:57;;;;;;;7.00;2.38;;;2.70;99.90;;;;;;4999368;28;20410;-66
2021/03/09 12:55:24;;;;;;;6.95;1.35;;;2.60;99.90;;;;;;4999841;28;20515;-65
2021/03/09 12:57:50;;;;;;;1.38;1.13;;;2.60;99.90;;;;;;4980263;28;20136;-66
2021/03/09 13:00:17;;;;;;;4.47;1.10;;;2.60;99.90;;;;;;4986975;28;20075;-66
2021/03/09 13:02:44;;;;;;;4.18;1.80;;;2.70;99.90;;;;;;4999765;28;20140;-67
2021/03/09 13:05:11;;;;;;;4.07;1.02;;;2.80;99.90;;;;;;4999400;28;20156;-65
2021/03/09 13:07:37;;;;;;;9.10;2.88;;;2.80;99.90;;;;;;4998574;28;20053;-65
2021/03/09 13:10:09;;;;;;;2.63;0.90;;;2.90;99.90;;;;;;4999616;28;20132;-67